createdAt,value
2019-02-21T00:00:26.103Z,7.00
2019-02-21T00:02:58.079Z,7.00
2019-02-21T00:05:28.429Z,7.00
2019-02-21T00:07:59.365Z,7.10
2019-02-21T00:10:29.861Z,7.20
2019-02-21T00:13:03.942Z,7.20
2019-02-21T00:15:34.319Z,7.30
2019-02-21T00:18:16.556Z,7.30
2019-02-21T00:20:47.530Z,7.30
2019-02-21T00:23:17.900Z,7.40
2019-02-21T00:25:49.322Z,7.40
2019-02-21T00:28:19.695Z,7.40
2019-02-21T00:30:50.065Z,7.50
2019-02-21T00:33:20.430Z,7.50
2019-02-21T00:35:51.003Z,7.50
2019-02-21T00:38:21.385Z,7.50
2019-02-21T00:40:51.743Z,7.50
2019-02-21T00:43:22.081Z,7.50
2019-02-21T00:45:52.444Z,7.50
2019-02-21T00:48:22.966Z,7.40
2019-02-21T00:50:53.393Z,7.40
2019-02-21T00:53:23.760Z,7.40
2019-02-21T00:55:54.104Z,7.40
2019-02-21T00:58:24.466Z,7.30
2019-02-21T01:00:54.820Z,7.30
2019-02-21T01:03:25.149Z,7.30
2019-02-21T01:05:55.519Z,7.20
2019-02-21T01:08:25.880Z,7.20
2019-02-21T01:10:56.226Z,7.20
2019-02-21T01:13:26.579Z,7.30
2019-02-21T01:15:56.932Z,7.30
2019-02-21T01:18:27.278Z,7.30
2019-02-21T01:20:57.622Z,7.30
2019-02-21T01:23:48.817Z,7.30
2019-02-21T01:26:19.163Z,7.40
2019-02-21T01:28:49.523Z,7.40
2019-02-21T01:31:19.950Z,7.40
2019-02-21T01:33:50.334Z,7.40
2019-02-21T01:36:20.670Z,7.40
2019-02-21T01:38:51.051Z,7.40
2019-02-21T01:41:21.402Z,7.30
2019-02-21T01:43:51.843Z,7.30
2019-02-21T01:46:22.197Z,7.30
2019-02-21T01:48:52.556Z,7.30
2019-02-21T01:51:23.039Z,7.30
2019-02-21T01:53:53.412Z,7.30
2019-02-21T01:56:23.766Z,7.30
2019-02-21T01:58:54.121Z,7.30
2019-02-21T02:01:24.485Z,7.20
2019-02-21T02:03:54.918Z,7.20
2019-02-21T02:06:25.336Z,7.20
2019-02-21T02:08:55.737Z,7.10
2019-02-21T02:11:26.080Z,7.10
2019-02-21T02:13:56.505Z,7.10
2019-02-21T02:16:28.542Z,7.10
2019-02-21T02:18:58.784Z,7.10
2019-02-21T02:21:29.150Z,7.10
2019-02-21T02:23:59.486Z,7.10
2019-02-21T02:26:29.837Z,7.00
2019-02-21T02:29:02.135Z,7.00
2019-02-21T02:31:32.481Z,7.00
2019-02-21T02:34:03.830Z,7.00
2019-02-21T02:36:34.180Z,6.90
2019-02-21T02:39:05.170Z,7.00
2019-02-21T02:41:56.583Z,7.00
2019-02-21T02:44:26.947Z,7.00
2019-02-21T02:46:57.344Z,7.00
2019-02-21T02:49:27.692Z,7.00
2019-02-21T02:51:58.039Z,7.00
2019-02-21T02:54:28.404Z,7.00
2019-02-21T02:56:58.773Z,6.90
2019-02-21T02:59:40.418Z,6.90
2019-02-21T03:02:01.515Z,6.90
2019-02-21T03:04:31.944Z,6.90
2019-02-21T03:07:02.304Z,6.90
2019-02-21T03:09:33.636Z,6.90
2019-02-21T03:12:04.012Z,6.90
2019-02-21T03:14:34.352Z,6.90
2019-02-21T03:17:04.723Z,7.00
2019-02-21T03:19:35.057Z,7.00
2019-02-21T03:22:05.417Z,7.10
2019-02-21T03:24:35.748Z,7.10
2019-02-21T03:27:06.123Z,7.20
2019-02-21T03:29:36.461Z,7.20
2019-02-21T03:32:06.830Z,7.20
2019-02-21T03:34:56.518Z,7.20
2019-02-21T03:37:26.896Z,7.10
2019-02-21T03:39:57.240Z,7.10
2019-02-21T03:42:27.599Z,7.00
2019-02-21T03:44:57.949Z,7.00
2019-02-21T03:47:28.334Z,6.90
2019-02-21T03:49:58.669Z,6.80
2019-02-21T03:52:29.030Z,6.80
2019-02-21T03:54:59.383Z,6.70
2019-02-21T03:57:29.730Z,6.70
2019-02-21T04:00:00.383Z,6.60
2019-02-21T04:02:30.767Z,6.50
2019-02-21T04:05:01.206Z,6.50
2019-02-21T04:07:32.522Z,6.50
2019-02-21T04:10:03.243Z,6.50
2019-02-21T04:12:33.607Z,6.50
2019-02-21T04:15:05.968Z,6.50
2019-02-21T04:17:36.341Z,6.40
2019-02-21T04:20:09.051Z,6.40
2019-02-21T04:22:39.423Z,6.30
2019-02-21T04:25:09.856Z,6.30
2019-02-21T04:27:40.216Z,6.30
2019-02-21T04:30:10.575Z,6.20
2019-02-21T04:32:40.946Z,6.20
2019-02-21T04:35:11.305Z,6.20
2019-02-21T04:37:41.690Z,6.10
2019-02-21T04:40:12.039Z,6.10
2019-02-21T04:42:42.405Z,6.10
2019-02-21T04:45:12.761Z,6.00
2019-02-21T04:47:43.116Z,6.00
2019-02-21T04:50:14.877Z,6.00
2019-02-21T04:52:45.232Z,6.00
2019-02-21T04:55:15.606Z,6.00
2019-02-21T04:57:45.960Z,6.10
2019-02-21T05:00:16.367Z,6.10
2019-02-21T05:02:46.723Z,6.10
2019-02-21T05:05:17.068Z,6.10
2019-02-21T05:07:47.455Z,6.10
2019-02-21T05:10:17.766Z,6.10
2019-02-21T05:12:48.139Z,6.00
2019-02-21T05:15:18.489Z,6.00
2019-02-21T05:17:48.863Z,6.10
2019-02-21T05:20:19.206Z,6.10
2019-02-21T05:22:49.569Z,6.10
2019-02-21T05:25:19.916Z,6.20
2019-02-21T05:27:51.864Z,6.20
2019-02-21T05:30:23.876Z,6.20
2019-02-21T05:32:58.803Z,6.20
2019-02-21T05:35:31.423Z,6.10
2019-02-21T05:38:16.755Z,6.10
2019-02-21T05:44:03.511Z,6.00
2019-02-21T05:46:48.568Z,5.90
2019-02-21T05:49:36.007Z,5.90
2019-02-21T05:52:22.826Z,6.00
2019-02-21T05:55:06.711Z,5.90
2019-02-21T05:57:38.705Z,5.90
2019-02-21T06:00:11.900Z,5.90
2019-02-21T06:02:53.786Z,5.90
2019-02-21T06:05:50.859Z,5.90
2019-02-21T06:08:31.835Z,5.90
2019-02-21T06:11:19.910Z,5.90
2019-02-21T06:13:51.919Z,5.90
2019-02-21T06:16:24.024Z,5.90
2019-02-21T06:18:56.042Z,6.00
2019-02-21T06:21:30.751Z,6.00
2019-02-21T06:24:02.753Z,6.10
2019-02-21T06:26:34.734Z,6.10
2019-02-21T06:29:09.966Z,6.20
2019-02-21T06:31:40.507Z,6.30
2019-02-21T06:34:10.878Z,6.30
2019-02-21T06:36:41.205Z,6.40
2019-02-21T06:39:11.542Z,6.40
2019-02-21T06:41:42.775Z,6.40
2019-02-21T06:44:13.474Z,6.50
2019-02-21T06:46:43.831Z,6.50
2019-02-21T06:49:14.169Z,6.60
2019-02-21T06:51:44.512Z,6.70
2019-02-21T06:54:14.855Z,6.70
2019-02-21T06:56:45.197Z,6.70
2019-02-21T06:59:15.553Z,6.80
2019-02-21T07:01:45.879Z,6.80
2019-02-21T07:04:17.292Z,6.80
2019-02-21T07:06:47.630Z,6.90
2019-02-21T07:09:17.972Z,7.00
2019-02-21T07:11:48.306Z,7.00
2019-02-21T07:14:18.668Z,7.00
2019-02-21T07:16:49.143Z,7.00
2019-02-21T07:19:19.487Z,7.10
2019-02-21T07:21:49.830Z,7.20
2019-02-21T07:24:20.170Z,7.20
2019-02-21T07:26:50.512Z,7.30
2019-02-21T07:29:20.860Z,7.30
2019-02-21T07:31:51.198Z,7.40
2019-02-21T07:34:21.537Z,7.50
2019-02-21T07:36:51.871Z,7.50
2019-02-21T07:39:22.225Z,7.60
2019-02-21T07:41:52.577Z,7.60
2019-02-21T07:44:22.931Z,7.60
2019-02-21T07:46:53.555Z,7.70
2019-02-21T07:49:25.688Z,7.80
2019-02-21T07:51:55.941Z,7.80
2019-02-21T07:54:26.285Z,7.80
2019-02-21T07:56:56.619Z,7.90
2019-02-21T07:59:27.335Z,8.00
2019-02-21T08:01:57.672Z,8.10
2019-02-21T08:04:28.018Z,8.10
2019-02-21T08:06:58.452Z,8.20
2019-02-21T08:09:29.644Z,8.20
2019-02-21T08:12:02.769Z,8.30
2019-02-21T08:14:33.944Z,8.30
2019-02-21T08:17:04.297Z,8.40
2019-02-21T08:19:34.661Z,8.40
2019-02-21T08:22:05.045Z,8.50
2019-02-21T08:24:35.410Z,8.50
2019-02-21T08:27:05.774Z,8.50
2019-02-21T08:29:36.140Z,8.60
2019-02-21T08:32:06.589Z,8.70
2019-02-21T08:34:38.583Z,8.70
2019-02-21T08:37:08.968Z,8.80
2019-02-21T08:39:39.336Z,8.90
2019-02-21T08:42:09.702Z,9.00
2019-02-21T08:44:40.150Z,9.20
2019-02-21T08:47:10.502Z,9.40
2019-02-21T08:49:40.897Z,9.50
2019-02-21T08:52:11.265Z,9.60
2019-02-21T08:54:41.615Z,9.70
2019-02-21T08:57:11.986Z,9.80
2019-02-21T08:59:42.650Z,9.90
2019-02-21T09:02:13.013Z,10.00
2019-02-21T09:04:43.448Z,10.10
2019-02-21T09:07:13.827Z,10.20
2019-02-21T09:09:44.238Z,10.20
2019-02-21T09:12:14.619Z,10.30
2019-02-21T09:14:45.065Z,10.40
2019-02-21T09:17:15.407Z,10.50
2019-02-21T09:19:45.784Z,10.60
2019-02-21T09:22:16.121Z,10.60
2019-02-21T09:24:46.501Z,10.60
2019-02-21T09:27:16.864Z,10.70
2019-02-21T09:29:47.267Z,10.70
2019-02-21T09:32:17.668Z,10.70
2019-02-21T09:34:50.300Z,10.70
2019-02-21T09:37:20.150Z,10.70
2019-02-21T09:39:50.539Z,10.80
2019-02-21T09:42:20.900Z,10.80
2019-02-21T09:44:51.369Z,10.80
2019-02-21T09:47:22.793Z,10.80
2019-02-21T09:49:53.184Z,10.90
2019-02-21T09:52:23.561Z,10.90
2019-02-21T09:54:53.912Z,11.00
2019-02-21T09:57:24.270Z,11.10
2019-02-21T09:59:54.659Z,11.10
2019-02-21T10:02:25.032Z,11.20
2019-02-21T10:05:04.495Z,11.30
2019-02-21T10:07:27.449Z,11.30
2019-02-21T10:09:57.835Z,11.40
2019-02-21T10:12:28.191Z,11.50
2019-02-21T10:14:58.561Z,11.60
2019-02-21T10:17:28.932Z,11.70
2019-02-21T10:20:04.036Z,11.70
2019-02-21T10:22:31.374Z,11.80
2019-02-21T10:25:01.744Z,11.90
2019-02-21T10:27:32.100Z,11.90
2019-02-21T10:30:02.486Z,11.90
2019-02-21T10:32:34.289Z,11.90
2019-02-21T10:35:06.259Z,11.80
2019-02-21T10:37:36.638Z,11.70
2019-02-21T10:40:10.681Z,11.50
2019-02-21T10:42:41.073Z,11.40
2019-02-21T10:45:14.828Z,11.20
2019-02-21T10:47:45.178Z,11.00
2019-02-21T10:50:18.459Z,10.80
2019-02-21T10:52:50.100Z,10.70
2019-02-21T10:55:20.602Z,10.60
2019-02-21T10:57:51.044Z,10.50
2019-02-21T11:00:30.321Z,10.40
2019-02-21T11:03:00.860Z,10.50
2019-02-21T11:05:31.219Z,10.60
2019-02-21T11:08:01.601Z,10.60
2019-02-21T11:10:32.371Z,10.60
2019-02-21T11:13:02.798Z,10.70
2019-02-21T11:15:33.149Z,10.70
2019-02-21T11:18:03.496Z,10.70
2019-02-21T11:20:33.870Z,10.80
2019-02-21T11:23:06.475Z,10.80
2019-02-21T11:25:36.313Z,11.00
2019-02-21T11:28:06.655Z,11.10
2019-02-21T11:30:37.081Z,11.10
2019-02-21T11:33:07.508Z,11.20
2019-02-21T11:35:37.858Z,11.30
2019-02-21T11:38:08.220Z,11.30
2019-02-21T11:40:38.656Z,11.40
2019-02-21T11:43:09.112Z,11.40
2019-02-21T11:45:39.425Z,11.50
2019-02-21T11:48:10.154Z,11.60
2019-02-21T11:50:40.504Z,11.80
2019-02-21T11:53:10.851Z,11.90
2019-02-21T11:55:41.215Z,11.90
2019-02-21T11:58:11.587Z,12.00
2019-02-21T12:00:41.941Z,12.10
2019-02-21T12:03:12.304Z,12.10
2019-02-21T12:05:42.661Z,12.10
2019-02-21T12:08:13.028Z,12.10
2019-02-21T12:10:43.388Z,12.20
2019-02-21T12:13:13.761Z,12.30
2019-02-21T12:15:44.100Z,12.40
2019-02-21T12:18:14.477Z,12.50
2019-02-21T12:20:44.822Z,12.60
2019-02-21T12:23:17.683Z,12.50
2019-02-21T12:25:47.246Z,12.60
2019-02-21T12:28:17.599Z,12.70
2019-02-21T12:30:47.977Z,12.70
2019-02-21T12:33:18.341Z,12.80
2019-02-21T12:35:48.709Z,12.80
2019-02-21T12:38:19.094Z,12.80
2019-02-21T12:40:49.454Z,12.70
2019-02-21T12:43:19.833Z,12.90
2019-02-21T12:45:52.640Z,12.90
2019-02-21T12:48:22.310Z,12.90
2019-02-21T12:50:52.846Z,13.00
2019-02-21T12:53:23.252Z,13.00
2019-02-21T12:55:53.623Z,13.00
2019-02-21T12:58:23.981Z,13.00
2019-02-21T13:00:54.349Z,13.00
2019-02-21T13:03:24.708Z,13.00
2019-02-21T13:05:55.080Z,13.00
2019-02-21T13:08:28.346Z,12.90
2019-02-21T13:10:58.705Z,12.90
2019-02-21T13:13:29.089Z,12.90
2019-02-21T13:15:59.436Z,12.90
2019-02-21T13:18:29.797Z,13.00
2019-02-21T13:21:00.137Z,13.10
2019-02-21T13:23:30.487Z,13.10
2019-02-21T13:26:00.835Z,13.10
2019-02-21T13:28:31.195Z,13.20
2019-02-21T13:31:01.541Z,13.30
2019-02-21T13:33:31.896Z,13.50
2019-02-21T13:36:02.252Z,13.50
2019-02-21T13:38:32.596Z,13.50
2019-02-21T13:41:02.951Z,13.40
2019-02-21T13:43:33.367Z,13.40
2019-02-21T13:46:04.815Z,13.30
2019-02-21T13:48:36.102Z,13.20
2019-02-21T13:51:06.445Z,13.10
2019-02-21T13:53:36.792Z,13.00
2019-02-21T13:56:07.149Z,13.00
2019-02-21T13:58:37.518Z,12.90
2019-02-21T14:01:07.843Z,12.90
2019-02-21T14:03:38.195Z,12.80
2019-02-21T14:06:08.539Z,12.70
2019-02-21T14:08:38.900Z,12.70
2019-02-21T14:11:09.249Z,12.50
2019-02-21T14:13:40.347Z,12.40
2019-02-21T14:16:10.708Z,12.30
2019-02-21T14:18:41.161Z,12.20
2019-02-21T14:21:11.506Z,12.20
2019-02-21T14:23:41.880Z,12.10
2019-02-21T14:26:12.255Z,12.00
2019-02-21T14:28:42.635Z,12.00
2019-02-21T14:31:12.995Z,11.90
2019-02-21T14:33:43.364Z,11.90
2019-02-21T14:36:16.813Z,11.90
2019-02-21T14:38:45.787Z,11.80
2019-02-21T14:41:16.142Z,11.80
2019-02-21T14:43:46.572Z,11.70
2019-02-21T14:46:16.913Z,11.60
2019-02-21T14:48:47.269Z,11.60
2019-02-21T14:51:17.628Z,11.50
2019-02-21T14:53:47.983Z,11.40
2019-02-21T14:56:20.089Z,11.40
2019-02-21T14:58:50.568Z,11.40
2019-02-21T15:01:20.916Z,11.40
2019-02-21T15:03:51.268Z,11.40
2019-02-21T15:06:27.160Z,11.30
2019-02-21T15:08:53.930Z,11.20
2019-02-21T15:11:24.279Z,11.10
2019-02-21T15:13:54.632Z,11.00
2019-02-21T15:16:24.979Z,11.00
2019-02-21T15:18:55.498Z,10.80
2019-02-21T15:21:25.865Z,10.80
2019-02-21T15:23:56.227Z,10.70
2019-02-21T15:26:26.599Z,10.70
2019-02-21T15:28:56.979Z,10.60
2019-02-21T15:31:27.315Z,10.60
2019-02-21T15:33:57.675Z,10.50
2019-02-21T15:36:37.851Z,10.50
2019-02-21T15:39:00.217Z,10.40
2019-02-21T15:41:30.647Z,10.40
2019-02-21T15:44:01.012Z,10.40
2019-02-21T15:46:31.336Z,10.40
2019-02-21T15:49:01.733Z,10.30
2019-02-21T15:51:33.585Z,10.30
2019-02-21T15:54:05.497Z,10.30
2019-02-21T15:56:35.865Z,10.30
2019-02-21T15:59:07.889Z,10.30
2019-02-21T16:01:47.081Z,10.20
2019-02-21T16:04:10.321Z,10.20
2019-02-21T16:06:50.961Z,10.20
2019-02-21T16:09:16.310Z,10.20
2019-02-21T16:11:44.815Z,10.20
2019-02-21T16:14:15.247Z,10.20
2019-02-21T16:16:45.599Z,10.20
2019-02-21T16:19:16.096Z,10.10
2019-02-21T16:21:46.449Z,10.10
2019-02-21T16:24:16.849Z,10.10
2019-02-21T16:26:47.196Z,10.10
2019-02-21T16:29:17.567Z,10.10
2019-02-21T16:31:47.927Z,10.10
2019-02-21T16:34:18.322Z,10.10
2019-02-21T16:36:48.672Z,10.10
2019-02-21T16:39:19.052Z,10.00
2019-02-21T16:41:49.463Z,10.00
2019-02-21T16:44:19.769Z,10.00
2019-02-21T16:46:50.116Z,10.00
2019-02-21T16:49:20.470Z,10.00
2019-02-21T16:51:50.839Z,10.00
2019-02-21T16:54:21.196Z,9.90
2019-02-21T16:56:51.583Z,9.90
2019-02-21T16:59:21.924Z,9.90
2019-02-21T17:01:52.362Z,9.90
2019-02-21T17:04:28.236Z,9.90
2019-02-21T17:06:58.596Z,9.90
2019-02-21T17:09:28.954Z,9.90
2019-02-21T17:12:01.063Z,9.90
2019-02-21T17:14:31.348Z,9.90
2019-02-21T17:17:01.691Z,9.90
2019-02-21T17:19:34.967Z,9.90
2019-02-21T17:22:05.313Z,9.90
2019-02-21T17:24:35.666Z,9.90
2019-02-21T17:27:06.007Z,9.80
2019-02-21T17:29:36.379Z,9.90
2019-02-21T17:32:06.745Z,9.90
2019-02-21T17:34:37.172Z,9.90
2019-02-21T17:37:07.534Z,9.90
2019-02-21T17:39:38.105Z,9.90
2019-02-21T17:42:08.456Z,9.90
2019-02-21T17:44:38.807Z,9.90
2019-02-21T17:47:09.154Z,9.80
2019-02-21T17:49:39.495Z,9.80
2019-02-21T17:52:09.859Z,9.80
2019-02-21T17:54:44.074Z,9.80
2019-02-21T17:57:14.423Z,9.80
2019-02-21T17:59:44.798Z,9.80
2019-02-21T18:02:15.159Z,9.80
2019-02-21T18:04:45.508Z,9.80
2019-02-21T18:07:15.851Z,9.80
2019-02-21T18:09:46.449Z,9.80
2019-02-21T18:12:16.803Z,9.80
2019-02-21T18:14:47.141Z,9.80
2019-02-21T18:17:17.550Z,9.80
2019-02-21T18:19:47.914Z,9.80
2019-02-21T18:22:18.255Z,9.80
2019-02-21T18:24:48.649Z,9.80
2019-02-21T18:27:18.969Z,9.80
2019-02-21T18:29:49.337Z,9.80
2019-02-21T18:32:28.810Z,9.80
2019-02-21T18:34:59.180Z,9.80
2019-02-21T18:37:29.529Z,9.80
2019-02-21T18:39:59.916Z,9.80
2019-02-21T18:42:30.262Z,9.80
2019-02-21T18:45:00.913Z,9.80
2019-02-21T18:47:32.803Z,9.80
2019-02-21T18:50:03.149Z,9.80
2019-02-21T18:52:33.506Z,9.80
2019-02-21T18:55:04.591Z,9.80
2019-02-21T18:57:34.946Z,9.80
2019-02-21T19:00:16.390Z,9.80
2019-02-21T19:02:46.730Z,9.80
2019-02-21T19:05:17.150Z,9.80
2019-02-21T19:07:55.828Z,9.80
2019-02-21T19:10:21.308Z,9.80
2019-02-21T19:12:51.764Z,9.90
2019-02-21T19:15:41.612Z,9.90
2019-02-21T19:18:12.032Z,9.90
2019-02-21T19:20:42.380Z,9.90
2019-02-21T19:23:12.726Z,9.90
2019-02-21T19:25:43.134Z,9.90
2019-02-21T19:28:13.560Z,9.90
2019-02-21T19:31:00.545Z,9.90
2019-02-21T19:33:30.881Z,9.90
2019-02-21T19:36:02.202Z,10.00
2019-02-21T19:38:32.607Z,9.90
2019-02-21T19:41:02.953Z,9.90
2019-02-21T19:43:33.364Z,9.90
2019-02-21T19:46:03.773Z,9.90
2019-02-21T19:48:34.112Z,9.90
2019-02-21T19:51:04.460Z,9.90
2019-02-21T19:53:34.804Z,10.00
2019-02-21T19:56:05.213Z,10.00
2019-02-21T19:58:35.574Z,10.00
2019-02-21T20:01:06.264Z,10.00
2019-02-21T20:03:37.309Z,10.00
2019-02-21T20:06:20.941Z,10.00
2019-02-21T20:08:51.268Z,10.00
2019-02-21T20:11:21.620Z,10.00
2019-02-21T20:13:51.972Z,10.00
2019-02-21T20:16:22.323Z,10.00
2019-02-21T20:18:52.668Z,10.00
2019-02-21T20:21:23.095Z,10.00
2019-02-21T20:23:53.452Z,9.90
2019-02-21T20:26:23.808Z,10.00
2019-02-21T20:28:55.164Z,10.00
2019-02-21T20:31:25.729Z,10.00
2019-02-21T20:33:56.128Z,10.00
2019-02-21T20:36:27.586Z,10.00
2019-02-21T20:38:57.937Z,10.00
2019-02-21T20:41:28.286Z,10.10
2019-02-21T20:43:58.701Z,10.10
2019-02-21T20:46:29.051Z,10.10
2019-02-21T20:49:03.466Z,10.10
2019-02-21T20:51:33.905Z,10.10
2019-02-21T20:54:04.265Z,10.10
2019-02-21T20:56:34.680Z,10.10
2019-02-21T20:59:05.431Z,10.10
2019-02-21T21:01:36.057Z,10.10
2019-02-21T21:04:06.573Z,10.10
2019-02-21T21:06:38.891Z,10.20
2019-02-21T21:09:09.682Z,10.10
2019-02-21T21:11:40.100Z,10.10
2019-02-21T21:14:10.675Z,10.10
2019-02-21T21:16:41.041Z,10.20
2019-02-21T21:19:20.364Z,10.20
2019-02-21T21:21:50.725Z,10.20
2019-02-21T21:24:21.080Z,10.20
2019-02-21T21:26:51.791Z,10.20
2019-02-21T21:29:22.156Z,10.20
2019-02-21T21:31:53.563Z,10.20
2019-02-21T21:34:25.190Z,10.20
2019-02-21T21:36:55.530Z,10.20
2019-02-21T21:39:26.955Z,10.20
2019-02-21T21:41:57.310Z,10.20
2019-02-21T21:44:27.665Z,10.10
2019-02-21T21:46:58.281Z,10.20
2019-02-21T21:49:28.638Z,10.20
2019-02-21T21:51:58.987Z,10.20
2019-02-21T21:54:29.394Z,10.20
2019-02-21T21:57:01.467Z,10.20
2019-02-21T21:59:32.817Z,10.20
2019-02-21T22:02:03.175Z,10.20
2019-02-21T22:04:33.524Z,10.20
2019-02-21T22:07:03.987Z,10.10
2019-02-21T22:09:34.339Z,10.20
2019-02-21T22:12:04.768Z,10.20
2019-02-21T22:14:35.120Z,10.20
2019-02-21T22:17:05.479Z,10.20
2019-02-21T22:19:35.823Z,10.20
2019-02-21T22:22:06.191Z,10.20
2019-02-21T22:24:36.538Z,10.20
2019-02-21T22:27:06.901Z,10.20
2019-02-21T22:29:37.241Z,10.20
2019-02-21T22:32:07.607Z,10.20
2019-02-21T22:34:37.954Z,10.20
2019-02-21T22:37:08.309Z,10.30
2019-02-21T22:39:38.653Z,10.30
2019-02-21T22:42:09.014Z,10.20
2019-02-21T22:44:39.360Z,10.20
2019-02-21T22:47:09.735Z,10.20
2019-02-21T22:49:40.088Z,10.20
2019-02-21T22:52:10.443Z,10.20
2019-02-21T22:54:40.784Z,10.30
2019-02-21T22:57:11.296Z,10.20
2019-02-21T22:59:41.646Z,10.20
2019-02-21T23:02:12.252Z,10.20
2019-02-21T23:04:53.575Z,10.30
2019-02-21T23:07:31.122Z,10.20
2019-02-21T23:10:01.474Z,10.30
2019-02-21T23:12:33.438Z,10.30
2019-02-21T23:15:04.050Z,10.30
2019-02-21T23:17:34.675Z,10.30
2019-02-21T23:20:06.080Z,10.30
2019-02-21T23:22:36.382Z,10.30
2019-02-21T23:25:07.663Z,10.30
2019-02-21T23:27:38.019Z,10.30
2019-02-21T23:30:10.573Z,10.30
2019-02-21T23:32:40.933Z,10.30
2019-02-21T23:35:13.192Z,10.30
2019-02-21T23:37:43.552Z,10.30
2019-02-21T23:40:13.898Z,10.30
2019-02-21T23:42:44.262Z,10.30
2019-02-21T23:45:14.607Z,10.20
2019-02-21T23:47:49.664Z,10.30
2019-02-21T23:50:17.019Z,10.30
2019-02-21T23:52:47.378Z,10.30
2019-02-21T23:55:17.723Z,10.30
2019-02-21T23:57:48.151Z,10.30
